createdAt,value
2017-06-13T00:00:22.966Z,1007.43
2017-06-13T00:01:03.453Z,1007.45
2017-06-13T00:01:43.948Z,1007.46
2017-06-13T00:02:24.428Z,1007.45
2017-06-13T00:04:17.071Z,1007.49
2017-06-13T00:04:57.558Z,1007.46
2017-06-13T00:05:38.031Z,1007.43
2017-06-13T00:07:30.562Z,1007.46
2017-06-13T00:08:11.045Z,1007.43
2017-06-13T00:08:51.505Z,1007.44
2017-06-13T00:09:31.963Z,1007.43
2017-06-13T00:11:44.720Z,1007.45
2017-06-13T00:12:25.203Z,1007.41
2017-06-13T00:13:05.691Z,1007.46
2017-06-13T00:13:46.219Z,1007.42
2017-06-13T00:14:26.681Z,1007.45
2017-06-13T00:15:07.160Z,1007.44
2017-06-13T00:15:47.649Z,1007.41
2017-06-13T00:16:28.153Z,1007.41
2017-06-13T00:17:08.636Z,1007.43
2017-06-13T00:17:49.139Z,1007.42
2017-06-13T00:18:29.634Z,1007.44
2017-06-13T00:19:10.122Z,1007.43
2017-06-13T00:19:50.619Z,1007.46
2017-06-13T00:20:31.905Z,1007.45
2017-06-13T00:21:12.390Z,1007.43
2017-06-13T00:21:52.886Z,1007.43
2017-06-13T00:22:33.369Z,1007.41
2017-06-13T00:23:13.861Z,1007.44
2017-06-13T00:23:54.343Z,1007.4
2017-06-13T00:24:34.825Z,1007.4
2017-06-13T00:25:15.319Z,1007.42
2017-06-13T00:25:56.606Z,1007.38
2017-06-13T00:26:37.084Z,1007.39
2017-06-13T00:27:17.572Z,1007.42
2017-06-13T00:27:58.077Z,1007.45
2017-06-13T00:28:38.567Z,1007.44
2017-06-13T00:29:19.048Z,1007.41
2017-06-13T00:29:59.546Z,1007.43
2017-06-13T00:30:40.031Z,1007.43
2017-06-13T00:31:20.512Z,1007.43
2017-06-13T00:32:00.988Z,1007.42
2017-06-13T00:32:41.484Z,1007.41
2017-06-13T00:33:21.972Z,1007.41
2017-06-13T00:34:02.457Z,1007.39
2017-06-13T00:34:42.959Z,1007.43
2017-06-13T00:35:23.450Z,1007.44
2017-06-13T00:36:03.970Z,1007.47
2017-06-13T00:36:44.464Z,1007.47
2017-06-13T00:37:24.953Z,1007.45
2017-06-13T00:38:05.455Z,1007.45
2017-06-13T00:38:45.957Z,1007.45
2017-06-13T00:39:26.441Z,1007.45
2017-06-13T00:40:06.935Z,1007.44
2017-06-13T00:40:47.423Z,1007.45
2017-06-13T00:41:27.920Z,1007.44
2017-06-13T00:42:08.435Z,1007.43
2017-06-13T00:42:48.923Z,1007.43
2017-06-13T00:43:29.425Z,1007.43
2017-06-13T00:44:09.909Z,1007.45
2017-06-13T00:44:50.402Z,1007.39
2017-06-13T00:45:30.906Z,1007.41
2017-06-13T00:46:11.398Z,1007.42
2017-06-13T00:46:51.883Z,1007.39
2017-06-13T00:47:32.383Z,1007.37
2017-06-13T00:48:12.881Z,1007.38
2017-06-13T00:48:53.363Z,1007.37
2017-06-13T00:49:33.860Z,1007.4
2017-06-13T00:50:14.348Z,1007.39
2017-06-13T00:50:54.835Z,1007.35
2017-06-13T00:51:35.336Z,1007.35
2017-06-13T00:52:15.824Z,1007.37
2017-06-13T00:52:56.308Z,1007.32
2017-06-13T00:53:36.816Z,1007.31
2017-06-13T00:54:17.302Z,1007.34
2017-06-13T00:54:57.784Z,1007.31
2017-06-13T00:55:38.289Z,1007.34
2017-06-13T00:56:18.777Z,1007.35
2017-06-13T00:56:59.259Z,1007.31
2017-06-13T00:57:39.758Z,1007.29
2017-06-13T00:58:20.254Z,1007.36
2017-06-13T00:59:00.738Z,1007.35
2017-06-13T00:59:41.243Z,1007.33
2017-06-13T01:00:21.734Z,1007.38
2017-06-13T01:01:02.234Z,1007.38
2017-06-13T01:01:42.719Z,1007.41
2017-06-13T01:02:23.214Z,1007.4
2017-06-13T01:03:03.705Z,1007.42
2017-06-13T01:03:44.202Z,1007.4
2017-06-13T01:04:24.687Z,1007.4
2017-06-13T01:05:05.166Z,1007.39
2017-06-13T01:05:45.662Z,1007.42
2017-06-13T01:06:26.164Z,1007.4
2017-06-13T01:07:06.634Z,1007.44
2017-06-13T01:07:47.115Z,1007.44
2017-06-13T01:08:27.682Z,1007.41
2017-06-13T01:09:08.208Z,1007.38
2017-06-13T01:09:48.700Z,1007.38
2017-06-13T01:10:29.146Z,1007.36
2017-06-13T01:11:09.648Z,1007.4
2017-06-13T01:11:50.142Z,1007.35
2017-06-13T01:12:30.626Z,1007.35
2017-06-13T01:13:11.116Z,1007.39
2017-06-13T01:13:51.614Z,1007.36
2017-06-13T01:14:32.108Z,1007.38
2017-06-13T01:15:12.606Z,1007.39
2017-06-13T01:15:53.091Z,1007.43
2017-06-13T01:16:33.567Z,1007.38
2017-06-13T01:17:15.028Z,1007.39
2017-06-13T01:17:55.519Z,1007.31
2017-06-13T01:18:36.004Z,1007.33
2017-06-13T01:19:16.506Z,1007.31
2017-06-13T01:19:57.008Z,1007.29
2017-06-13T01:20:37.490Z,1007.33
2017-06-13T01:21:17.990Z,1007.35
2017-06-13T01:21:58.484Z,1007.32
2017-06-13T01:22:38.975Z,1007.37
2017-06-13T01:23:19.460Z,1007.34
2017-06-13T01:23:59.943Z,1007.38
2017-06-13T01:24:40.440Z,1007.4
2017-06-13T01:25:20.939Z,1007.36
2017-06-13T01:26:01.429Z,1007.39
2017-06-13T01:26:41.928Z,1007.36
2017-06-13T01:27:22.422Z,1007.35
2017-06-13T01:28:02.904Z,1007.36
2017-06-13T01:30:15.620Z,1007.32
2017-06-13T01:30:56.123Z,1007.35
2017-06-13T01:31:36.605Z,1007.37
2017-06-13T01:32:17.099Z,1007.35
2017-06-13T01:32:57.587Z,1007.37
2017-06-13T01:33:38.078Z,1007.39
2017-06-13T01:34:18.576Z,1007.37
2017-06-13T01:34:59.055Z,1007.39
2017-06-13T01:35:39.545Z,1007.39
2017-06-13T01:36:20.052Z,1007.43
2017-06-13T01:37:00.552Z,1007.42
2017-06-13T01:37:41.043Z,1007.4
2017-06-13T01:38:21.528Z,1007.41
2017-06-13T01:39:02.007Z,1007.41
2017-06-13T01:39:42.492Z,1007.43
2017-06-13T01:40:22.985Z,1007.47
2017-06-13T01:41:03.467Z,1007.48
2017-06-13T01:41:43.961Z,1007.44
2017-06-13T01:42:24.459Z,1007.48
2017-06-13T01:43:04.969Z,1007.47
2017-06-13T01:43:45.463Z,1007.45
2017-06-13T01:44:25.957Z,1007.48
2017-06-13T01:45:06.446Z,1007.46
2017-06-13T01:45:46.948Z,1007.45
2017-06-13T01:46:27.441Z,1007.46
2017-06-13T01:47:07.918Z,1007.48
2017-06-13T01:47:48.421Z,1007.46
2017-06-13T01:48:28.910Z,1007.48
2017-06-13T01:49:09.401Z,1007.5
2017-06-13T01:49:50.835Z,1007.53
2017-06-13T01:50:31.317Z,1007.48
2017-06-13T01:51:11.813Z,1007.48
2017-06-13T01:51:52.304Z,1007.5
2017-06-13T01:52:32.786Z,1007.5
2017-06-13T01:53:13.288Z,1007.51
2017-06-13T01:53:53.781Z,1007.52
2017-06-13T01:54:34.267Z,1007.51
2017-06-13T01:55:14.746Z,1007.51
2017-06-13T01:55:55.251Z,1007.52
2017-06-13T01:56:35.741Z,1007.55
2017-06-13T01:57:16.225Z,1007.56
2017-06-13T01:57:56.714Z,1007.57
2017-06-13T01:58:37.205Z,1007.57
2017-06-13T01:59:17.691Z,1007.6
2017-06-13T01:59:58.208Z,1007.58
2017-06-13T02:00:38.705Z,1007.57
2017-06-13T02:01:19.200Z,1007.56
2017-06-13T02:01:59.685Z,1007.59
2017-06-13T02:02:40.173Z,1007.57
2017-06-13T02:03:20.655Z,1007.54
2017-06-13T02:04:01.139Z,1007.56
2017-06-13T02:04:41.651Z,1007.57
2017-06-13T02:05:22.140Z,1007.54
2017-06-13T02:06:02.634Z,1007.54
2017-06-13T02:06:43.135Z,1007.53
2017-06-13T02:07:23.616Z,1007.54
2017-06-13T02:08:04.122Z,1007.54
2017-06-13T02:08:44.612Z,1007.53
2017-06-13T02:09:25.107Z,1007.53
2017-06-13T02:10:05.599Z,1007.53
2017-06-13T02:10:46.085Z,1007.52
2017-06-13T02:11:26.587Z,1007.5
2017-06-13T02:12:07.074Z,1007.49
2017-06-13T02:12:47.566Z,1007.5
2017-06-13T02:13:28.049Z,1007.5
2017-06-13T02:14:08.527Z,1007.5
2017-06-13T02:14:49.017Z,1007.52
2017-06-13T02:15:29.500Z,1007.52
2017-06-13T02:16:09.998Z,1007.53
2017-06-13T02:16:50.484Z,1007.54
2017-06-13T02:17:30.989Z,1007.48
2017-06-13T02:18:11.478Z,1007.51
2017-06-13T02:18:51.961Z,1007.51
2017-06-13T02:19:32.448Z,1007.48
2017-06-13T02:20:13.981Z,1007.45
2017-06-13T02:20:54.467Z,1007.44
2017-06-13T02:21:34.953Z,1007.47
2017-06-13T02:22:15.444Z,1007.48
2017-06-13T02:22:55.956Z,1007.46
2017-06-13T02:23:36.426Z,1007.48
2017-06-13T02:24:16.914Z,1007.48
2017-06-13T02:24:57.413Z,1007.47
2017-06-13T02:25:37.902Z,1007.47
2017-06-13T02:26:18.388Z,1007.47
2017-06-13T02:26:58.884Z,1007.49
2017-06-13T02:27:39.388Z,1007.47
2017-06-13T02:28:19.884Z,1007.49
2017-06-13T02:29:00.368Z,1007.45
2017-06-13T02:29:40.874Z,1007.46
2017-06-13T02:30:21.397Z,1007.49
2017-06-13T02:31:01.890Z,1007.46
2017-06-13T02:31:42.372Z,1007.51
2017-06-13T02:32:22.888Z,1007.49
2017-06-13T02:33:03.369Z,1007.49
2017-06-13T02:33:43.865Z,1007.54
2017-06-13T02:34:24.354Z,1007.51
2017-06-13T02:35:04.838Z,1007.55
2017-06-13T02:35:45.326Z,1007.53
2017-06-13T02:36:25.821Z,1007.55
2017-06-13T02:37:06.311Z,1007.52
2017-06-13T02:37:46.798Z,1007.53
2017-06-13T02:38:27.294Z,1007.56
2017-06-13T02:39:07.793Z,1007.55
2017-06-13T02:39:48.276Z,1007.53
2017-06-13T02:40:28.775Z,1007.53
2017-06-13T02:41:09.277Z,1007.51
2017-06-13T02:41:49.776Z,1007.5
2017-06-13T02:42:30.258Z,1007.5
2017-06-13T02:43:10.746Z,1007.52
2017-06-13T02:43:51.227Z,1007.51
2017-06-13T02:44:31.727Z,1007.52
2017-06-13T02:45:12.223Z,1007.5
2017-06-13T02:45:52.721Z,1007.52
2017-06-13T02:46:33.217Z,1007.53
2017-06-13T02:47:13.707Z,1007.46
2017-06-13T02:47:54.192Z,1007.52
2017-06-13T02:48:34.721Z,1007.54
2017-06-13T02:49:15.220Z,1007.52
2017-06-13T02:49:55.708Z,1007.52
2017-06-13T02:50:36.199Z,1007.5
2017-06-13T02:51:16.696Z,1007.52
2017-06-13T02:51:57.181Z,1007.53
2017-06-13T02:52:37.675Z,1007.51
2017-06-13T02:53:18.160Z,1007.58
2017-06-13T02:53:58.657Z,1007.54
2017-06-13T02:54:39.149Z,1007.55
2017-06-13T02:55:19.637Z,1007.51
2017-06-13T02:56:00.124Z,1007.52
2017-06-13T02:56:40.615Z,1007.55
2017-06-13T02:57:21.104Z,1007.57
2017-06-13T02:58:01.607Z,1007.59
2017-06-13T02:58:42.101Z,1007.56
2017-06-13T02:59:22.580Z,1007.56
2017-06-13T03:00:03.065Z,1007.58
2017-06-13T03:00:43.569Z,1007.59
2017-06-13T03:01:24.065Z,1007.59
2017-06-13T03:02:04.556Z,1007.62
2017-06-13T03:02:45.058Z,1007.59
2017-06-13T03:03:25.551Z,1007.61
2017-06-13T03:04:06.046Z,1007.63
2017-06-13T03:04:46.579Z,1007.58
2017-06-13T03:05:27.032Z,1007.61
2017-06-13T03:06:07.514Z,1007.62
2017-06-13T03:06:47.999Z,1007.65
2017-06-13T03:07:28.494Z,1007.63
2017-06-13T03:08:08.983Z,1007.62
2017-06-13T03:08:49.486Z,1007.66
2017-06-13T03:09:30.011Z,1007.63
2017-06-13T03:10:10.510Z,1007.66
2017-06-13T03:10:50.997Z,1007.66
2017-06-13T03:11:31.491Z,1007.68
2017-06-13T03:12:11.984Z,1007.7
2017-06-13T03:12:52.475Z,1007.71
2017-06-13T03:13:32.969Z,1007.71
2017-06-13T03:14:13.459Z,1007.66
2017-06-13T03:14:53.945Z,1007.7
2017-06-13T03:15:34.429Z,1007.69
2017-06-13T03:16:14.917Z,1007.71
2017-06-13T03:16:55.405Z,1007.72
2017-06-13T03:17:35.892Z,1007.77
2017-06-13T03:18:16.394Z,1007.77
2017-06-13T03:18:56.874Z,1007.76
2017-06-13T03:19:37.359Z,1007.76
2017-06-13T03:20:17.855Z,1007.78
2017-06-13T03:20:58.352Z,1007.82
2017-06-13T03:21:38.838Z,1007.79
2017-06-13T03:22:19.340Z,1007.8
2017-06-13T03:22:59.832Z,1007.77
2017-06-13T03:23:40.320Z,1007.76
2017-06-13T03:24:20.812Z,1007.81
2017-06-13T03:25:01.323Z,1007.82
2017-06-13T03:25:41.788Z,1007.81
2017-06-13T03:26:22.289Z,1007.84
2017-06-13T03:27:02.786Z,1007.87
2017-06-13T03:27:43.268Z,1007.86
2017-06-13T03:28:23.770Z,1007.86
2017-06-13T03:29:04.865Z,1007.86
2017-06-13T03:29:45.341Z,1007.88
2017-06-13T03:30:25.820Z,1007.88
2017-06-13T03:31:06.319Z,1007.9
2017-06-13T03:31:46.810Z,1007.88
2017-06-13T03:32:27.301Z,1007.87
2017-06-13T03:33:07.798Z,1007.88
2017-06-13T03:33:48.288Z,1007.88
2017-06-13T03:34:28.770Z,1007.86
2017-06-13T03:35:09.271Z,1007.84
2017-06-13T03:35:49.767Z,1007.86
2017-06-13T03:36:30.262Z,1007.83
2017-06-13T03:37:10.754Z,1007.85
2017-06-13T03:37:51.246Z,1007.84
2017-06-13T03:38:31.733Z,1007.85
2017-06-13T03:39:12.233Z,1007.85
2017-06-13T03:39:52.733Z,1007.85
2017-06-13T03:40:33.225Z,1007.8
2017-06-13T03:41:13.714Z,1007.85
2017-06-13T03:41:54.200Z,1007.84
2017-06-13T03:42:34.682Z,1007.82
2017-06-13T03:43:15.188Z,1007.83
2017-06-13T03:43:55.678Z,1007.84
2017-06-13T03:44:36.171Z,1007.83
2017-06-13T03:45:16.664Z,1007.82
2017-06-13T03:45:57.154Z,1007.84
2017-06-13T03:46:37.645Z,1007.84
2017-06-13T03:47:18.135Z,1007.84
2017-06-13T03:47:58.627Z,1007.84
2017-06-13T03:48:39.111Z,1007.82
2017-06-13T03:49:19.610Z,1007.81
2017-06-13T03:50:00.107Z,1007.83
2017-06-13T03:50:40.630Z,1007.83
2017-06-13T03:51:21.125Z,1007.82
2017-06-13T03:52:01.614Z,1007.85
2017-06-13T03:52:42.116Z,1007.84
2017-06-13T03:53:22.604Z,1007.82
2017-06-13T03:54:03.091Z,1007.85
2017-06-13T03:54:43.587Z,1007.84
2017-06-13T03:55:24.078Z,1007.82
2017-06-13T03:56:04.569Z,1007.83
2017-06-13T03:56:45.070Z,1007.86
2017-06-13T03:57:25.568Z,1007.85
2017-06-13T03:58:06.050Z,1007.86
2017-06-13T03:58:46.545Z,1007.84
2017-06-13T03:59:27.035Z,1007.84
2017-06-13T04:00:07.531Z,1007.86
2017-06-13T04:00:48.022Z,1007.85
2017-06-13T04:01:28.515Z,1007.87
2017-06-13T04:02:08.986Z,1007.89
2017-06-13T04:02:49.476Z,1007.9
2017-06-13T04:03:29.994Z,1007.92
2017-06-13T04:04:10.476Z,1007.92
2017-06-13T04:04:50.961Z,1007.9
2017-06-13T04:06:43.497Z,1007.9
2017-06-13T04:07:23.996Z,1007.91
2017-06-13T04:08:04.490Z,1007.88
2017-06-13T04:08:44.976Z,1007.87
2017-06-13T04:09:25.476Z,1007.88
2017-06-13T04:10:05.973Z,1007.92
2017-06-13T04:10:46.456Z,1007.94
2017-06-13T04:11:26.945Z,1007.94
2017-06-13T04:12:07.443Z,1007.97
2017-06-13T04:12:47.930Z,1007.97
2017-06-13T04:13:28.425Z,1008.01
2017-06-13T04:14:08.930Z,1008.04
2017-06-13T04:14:49.415Z,1008.02
2017-06-13T04:15:29.907Z,1007.98
2017-06-13T04:16:10.393Z,1008.03
2017-06-13T04:16:50.887Z,1007.99
2017-06-13T04:17:31.391Z,1007.99
2017-06-13T04:18:11.878Z,1008
2017-06-13T04:18:52.359Z,1008.03
2017-06-13T04:19:32.845Z,1008.02
2017-06-13T04:20:13.351Z,1008.01
2017-06-13T04:20:53.855Z,1008.04
2017-06-13T04:21:34.337Z,1008.01
2017-06-13T04:22:14.832Z,1007.98
2017-06-13T04:22:55.311Z,1007.95
2017-06-13T04:23:35.793Z,1007.99
2017-06-13T04:24:16.307Z,1008
2017-06-13T04:24:56.788Z,1008.02
2017-06-13T04:25:37.278Z,1007.99
2017-06-13T04:26:17.783Z,1008.02
2017-06-13T04:26:58.273Z,1008.01
2017-06-13T04:27:38.774Z,1007.98
2017-06-13T04:28:19.264Z,1007.99
2017-06-13T04:28:59.765Z,1007.96
2017-06-13T04:29:40.254Z,1007.96
2017-06-13T04:30:20.742Z,1007.94
2017-06-13T04:31:01.244Z,1007.93
2017-06-13T04:31:41.703Z,1007.94
2017-06-13T04:32:22.194Z,1007.93
2017-06-13T04:33:02.678Z,1007.96
2017-06-13T04:33:43.182Z,1007.98
2017-06-13T04:34:23.657Z,1008.02
2017-06-13T04:35:04.151Z,1007.99
2017-06-13T04:35:44.642Z,1007.97
2017-06-13T04:36:25.168Z,1008
2017-06-13T04:37:05.661Z,1008.03
2017-06-13T04:37:46.180Z,1008.06
2017-06-13T04:38:26.674Z,1008.01
2017-06-13T04:39:07.174Z,1008
2017-06-13T04:39:47.667Z,1008.05
2017-06-13T04:40:28.159Z,1008.04
2017-06-13T04:41:08.659Z,1008.06
2017-06-13T04:41:49.144Z,1008.09
2017-06-13T04:42:29.633Z,1008.08
2017-06-13T04:43:10.127Z,1008.11
2017-06-13T04:43:50.620Z,1008.11
2017-06-13T04:44:31.102Z,1008.13
2017-06-13T04:45:11.563Z,1008.1
2017-06-13T04:45:52.065Z,1008.12
2017-06-13T04:46:32.558Z,1008.11
2017-06-13T04:47:13.044Z,1008.12
2017-06-13T04:47:53.558Z,1008.16
2017-06-13T04:48:34.073Z,1008.16
2017-06-13T04:49:14.571Z,1008.18
2017-06-13T04:49:55.057Z,1008.17
2017-06-13T04:50:35.544Z,1008.2
2017-06-13T04:51:16.040Z,1008.15
2017-06-13T04:51:56.529Z,1008.23
2017-06-13T04:52:37.019Z,1008.24
2017-06-13T04:53:17.511Z,1008.23
2017-06-13T04:53:58.009Z,1008.23
2017-06-13T04:54:38.502Z,1008.24
2017-06-13T04:55:18.997Z,1008.25
2017-06-13T04:55:59.485Z,1008.26
2017-06-13T04:56:40.586Z,1008.25
2017-06-13T04:57:21.083Z,1008.26
2017-06-13T04:58:01.575Z,1008.23
2017-06-13T04:58:42.059Z,1008.25
2017-06-13T04:59:22.573Z,1008.22
2017-06-13T05:00:03.067Z,1008.24
2017-06-13T05:00:43.546Z,1008.22
2017-06-13T05:01:24.046Z,1008.2
2017-06-13T05:02:04.539Z,1008.24
2017-06-13T05:02:45.026Z,1008.24
2017-06-13T05:05:12.960Z,1008.19
2017-06-13T05:05:53.475Z,1008.19
2017-06-13T05:06:33.974Z,1008.24
2017-06-13T05:07:14.470Z,1008.21
2017-06-13T05:07:54.956Z,1008.24
2017-06-13T05:08:35.446Z,1008.25
2017-06-13T05:09:15.949Z,1008.26
2017-06-13T05:09:56.433Z,1008.26
2017-06-13T05:10:36.919Z,1008.24
2017-06-13T05:11:17.426Z,1008.27
2017-06-13T05:11:57.912Z,1008.27
2017-06-13T05:12:38.401Z,1008.26
2017-06-13T05:13:18.902Z,1008.26
2017-06-13T05:13:59.382Z,1008.26
2017-06-13T05:14:39.921Z,1008.25
2017-06-13T05:15:20.442Z,1008.28
2017-06-13T05:16:00.945Z,1008.27
2017-06-13T05:16:41.420Z,1008.27
2017-06-13T05:17:21.927Z,1008.23
2017-06-13T05:18:02.418Z,1008.25
2017-06-13T05:18:42.895Z,1008.21
2017-06-13T05:19:23.389Z,1008.21
2017-06-13T05:20:03.872Z,1008.2
2017-06-13T05:20:44.359Z,1008.15
2017-06-13T05:21:24.838Z,1008.2
2017-06-13T05:22:05.344Z,1008.14
2017-06-13T05:22:45.836Z,1008.11
2017-06-13T05:23:26.338Z,1008.11
2017-06-13T05:24:06.827Z,1008.11
2017-06-13T05:24:48.171Z,1008.09
2017-06-13T05:25:28.662Z,1008.11
2017-06-13T05:26:09.153Z,1008.05
2017-06-13T05:26:49.646Z,1008.1
2017-06-13T05:27:30.146Z,1008.14
2017-06-13T05:28:10.668Z,1008.13
2017-06-13T05:28:51.151Z,1008.14
2017-06-13T05:29:31.644Z,1008.14
2017-06-13T05:30:12.137Z,1008.13
2017-06-13T05:30:52.674Z,1008.14
2017-06-13T05:31:33.174Z,1008.15
2017-06-13T05:32:13.656Z,1008.12
2017-06-13T05:32:54.144Z,1008.11
2017-06-13T05:33:34.622Z,1008.1
2017-06-13T05:34:15.125Z,1008.09
2017-06-13T05:34:55.615Z,1008.08
2017-06-13T05:35:36.109Z,1008.1
2017-06-13T05:36:16.617Z,1008.08
2017-06-13T05:36:57.101Z,1008.09
2017-06-13T05:39:25.079Z,1008.11
2017-06-13T05:40:05.547Z,1008.15
2017-06-13T05:40:46.027Z,1008.14
2017-06-13T05:41:26.517Z,1008.14
2017-06-13T05:42:06.983Z,1008.19
2017-06-13T05:42:47.428Z,1008.19
2017-06-13T05:43:27.859Z,1008.22
2017-06-13T05:45:20.434Z,1008.22
2017-06-13T05:46:00.901Z,1008.22
2017-06-13T05:46:41.410Z,1008.18
2017-06-13T05:47:21.898Z,1008.21
2017-06-13T05:48:02.377Z,1008.19
2017-06-13T05:48:42.852Z,1008.18
2017-06-13T05:49:23.347Z,1008.16
2017-06-13T05:50:03.831Z,1008.16
2017-06-13T05:50:44.310Z,1008.15
2017-06-13T05:51:24.817Z,1008.09
2017-06-13T05:52:05.330Z,1008.14
2017-06-13T05:52:45.806Z,1008.13
2017-06-13T05:53:26.325Z,1008.12
2017-06-13T05:54:06.813Z,1008.13
2017-06-13T05:54:47.330Z,1008.12
2017-06-13T05:55:27.824Z,1008.11
2017-06-13T05:56:08.308Z,1008.08
2017-06-13T05:56:48.801Z,1008.09
2017-06-13T05:57:29.288Z,1008.11
2017-06-13T05:58:09.805Z,1008.09
2017-06-13T05:58:50.303Z,1008.08
2017-06-13T05:59:30.820Z,1008.12
2017-06-13T06:00:11.315Z,1008.09
2017-06-13T06:00:51.824Z,1008.1
2017-06-13T06:01:32.301Z,1008.1
2017-06-13T06:02:12.815Z,1008.07
2017-06-13T06:02:53.319Z,1008.09
2017-06-13T06:03:33.813Z,1008.08
2017-06-13T06:04:14.307Z,1008.09
2017-06-13T06:04:54.809Z,1008.1
2017-06-13T06:05:35.330Z,1008.07
2017-06-13T06:06:15.824Z,1008.08
2017-06-13T06:06:56.311Z,1008.04
2017-06-13T06:07:36.801Z,1008.06
2017-06-13T06:08:17.305Z,1008.09
2017-06-13T06:08:57.790Z,1008.11
2017-06-13T06:09:38.286Z,1008.11
2017-06-13T06:10:18.805Z,1008.07
2017-06-13T06:10:59.275Z,1008.09
2017-06-13T06:11:39.732Z,1008.1
2017-06-13T06:12:20.234Z,1008.09
2017-06-13T06:13:00.744Z,1008.1
2017-06-13T06:13:41.229Z,1008.1
2017-06-13T06:14:21.759Z,1008.07
2017-06-13T06:15:02.244Z,1008.07
2017-06-13T06:15:42.703Z,1008.04
2017-06-13T06:16:23.203Z,1008.07
2017-06-13T06:17:03.710Z,1008.11
2017-06-13T06:17:44.219Z,1008.09
2017-06-13T06:18:24.708Z,1008.08
2017-06-13T06:19:05.176Z,1008.11
2017-06-13T06:19:45.675Z,1008.05
2017-06-13T06:20:26.193Z,1008.05
2017-06-13T06:21:06.699Z,1008.07
2017-06-13T06:21:47.237Z,1008.08
2017-06-13T06:22:27.761Z,1008.06
2017-06-13T06:23:08.292Z,1008.06
2017-06-13T06:23:48.821Z,1008.04
2017-06-13T06:24:29.319Z,1008.04
2017-06-13T06:25:09.814Z,1008.02
2017-06-13T06:25:50.300Z,1008.03
2017-06-13T06:26:30.802Z,1008.05
2017-06-13T06:27:11.286Z,1008.04
2017-06-13T06:27:51.796Z,1008.01
2017-06-13T06:28:32.285Z,1008
2017-06-13T06:29:12.774Z,1008.02
2017-06-13T06:29:53.265Z,1008.03
2017-06-13T06:30:33.749Z,1008.01
2017-06-13T06:31:14.282Z,1008
2017-06-13T06:31:54.778Z,1008
2017-06-13T06:32:35.281Z,1007.99
2017-06-13T06:33:15.784Z,1008.03
2017-06-13T06:33:56.292Z,1008.04
2017-06-13T06:34:36.794Z,1008.06
2017-06-13T06:35:17.257Z,1008.03
2017-06-13T06:37:45.203Z,1008.06
2017-06-13T06:38:25.777Z,1008.07
2017-06-13T06:39:06.317Z,1008.07
2017-06-13T06:39:46.875Z,1008.08
2017-06-13T06:40:27.430Z,1008.07
2017-06-13T06:41:07.973Z,1008.08
2017-06-13T06:41:48.437Z,1008.07
2017-06-13T06:42:28.937Z,1008.09
2017-06-13T06:43:09.429Z,1008.13
2017-06-13T06:43:49.917Z,1008.07
2017-06-13T06:44:30.406Z,1008.12
2017-06-13T06:45:10.888Z,1008.12
2017-06-13T06:45:51.413Z,1008.16
2017-06-13T06:46:31.879Z,1008.16
2017-06-13T06:47:12.352Z,1008.13
2017-06-13T06:47:52.838Z,1008.14
2017-06-13T06:48:33.361Z,1008.19
2017-06-13T06:49:13.827Z,1008.18
2017-06-13T06:49:54.329Z,1008.15
2017-06-13T06:50:34.824Z,1008.15
2017-06-13T06:51:15.331Z,1008.19
2017-06-13T06:51:55.912Z,1008.18
2017-06-13T06:52:36.308Z,1008.18
2017-06-13T06:53:16.791Z,1008.13
2017-06-13T06:53:57.323Z,1008.14
2017-06-13T06:54:37.783Z,1008.13
2017-06-13T06:55:18.282Z,1008.12
2017-06-13T06:55:58.775Z,1008.1
2017-06-13T06:56:39.272Z,1008.11
2017-06-13T06:57:19.770Z,1008.12
2017-06-13T06:58:00.255Z,1008.09
2017-06-13T06:58:40.743Z,1008.1
2017-06-13T06:59:21.272Z,1008.11
2017-06-13T07:00:01.765Z,1008.07
2017-06-13T07:02:29.769Z,1008.11
2017-06-13T07:03:10.243Z,1008.08
2017-06-13T07:03:50.765Z,1008.07
2017-06-13T07:04:31.209Z,1008.08
2017-06-13T07:05:11.722Z,1008.05
2017-06-13T07:05:52.225Z,1008.08
2017-06-13T07:07:44.782Z,1008.03
2017-06-13T07:08:25.291Z,1008.09
2017-06-13T07:09:05.783Z,1008.07
2017-06-13T07:09:46.270Z,1008.08
2017-06-13T07:10:26.783Z,1008.09
2017-06-13T07:11:07.331Z,1008.07
2017-06-13T07:11:47.793Z,1008.08
2017-06-13T07:12:28.280Z,1008.1
2017-06-13T07:13:08.805Z,1008.08
2017-06-13T07:13:49.297Z,1008.11
2017-06-13T07:14:29.795Z,1008.11
2017-06-13T07:15:10.279Z,1008.11
2017-06-13T07:15:50.785Z,1008.12
2017-06-13T07:16:31.270Z,1008.1
2017-06-13T07:17:11.757Z,1008.08
2017-06-13T07:17:52.259Z,1008.08
2017-06-13T07:18:32.759Z,1008.09
2017-06-13T07:19:13.248Z,1008.12
2017-06-13T07:19:53.766Z,1008.12
2017-06-13T07:20:34.262Z,1008.11
2017-06-13T07:21:14.749Z,1008.11
2017-06-13T07:21:55.288Z,1008.13
2017-06-13T07:22:35.828Z,1008.11
2017-06-13T07:23:16.358Z,1008.11
2017-06-13T07:23:56.851Z,1008.12
2017-06-13T07:24:37.361Z,1008.14
2017-06-13T07:25:17.881Z,1008.09
2017-06-13T07:25:58.375Z,1008.05
2017-06-13T07:26:38.884Z,1008.06
2017-06-13T07:27:19.371Z,1008.08
2017-06-13T07:28:00.691Z,1008.07
2017-06-13T07:28:42.097Z,1008.07
2017-06-13T07:29:22.653Z,1008.06
2017-06-13T07:30:03.154Z,1008.1
2017-06-13T07:30:43.680Z,1008.13
2017-06-13T07:31:24.159Z,1008.14
2017-06-13T07:32:04.723Z,1008.14
2017-06-13T07:32:45.261Z,1008.15
2017-06-13T07:33:25.749Z,1008.12
2017-06-13T07:34:06.227Z,1008.11
2017-06-13T07:34:46.726Z,1008.13
2017-06-13T07:35:27.217Z,1008.07
2017-06-13T07:36:07.717Z,1008.08
2017-06-13T07:36:48.211Z,1008.1
2017-06-13T07:37:28.701Z,1008.1
2017-06-13T07:38:09.247Z,1008.06
2017-06-13T07:38:49.740Z,1008.04
2017-06-13T07:39:30.225Z,1008.05
2017-06-13T07:40:10.798Z,1008.08
2017-06-13T07:40:51.294Z,1008.07
2017-06-13T07:43:09.415Z,1008.07
2017-06-13T07:43:49.918Z,1008.08
2017-06-13T07:44:30.404Z,1008.05
2017-06-13T07:45:11.437Z,1008.08
2017-06-13T07:45:51.920Z,1008.07
2017-06-13T07:46:32.423Z,1008.06
2017-06-13T07:47:12.911Z,1008.08
2017-06-13T07:47:53.371Z,1008.07
2017-06-13T07:48:33.887Z,1008.09
2017-06-13T07:49:14.392Z,1008.08
2017-06-13T07:49:54.894Z,1008.05
2017-06-13T07:50:35.411Z,1008.05
2017-06-13T07:51:16.653Z,1008.03
2017-06-13T07:51:57.149Z,1008.05
2017-06-13T07:52:37.644Z,1008.07
2017-06-13T07:53:18.186Z,1008.08
2017-06-13T07:53:58.679Z,1008.07
2017-06-13T07:54:39.181Z,1008.11
2017-06-13T07:55:19.676Z,1008.11
2017-06-13T07:56:00.223Z,1008.15
2017-06-13T07:58:13.028Z,1008.11
2017-06-13T07:58:53.505Z,1008.15
2017-06-13T07:59:34.006Z,1008.12
2017-06-13T08:00:14.499Z,1008.1
2017-06-13T08:00:54.990Z,1008.1
2017-06-13T08:01:35.477Z,1008.13
2017-06-13T08:02:16.007Z,1008.14
2017-06-13T08:02:56.477Z,1008.15
2017-06-13T08:03:36.965Z,1008.14
2017-06-13T08:04:17.489Z,1008.09
2017-06-13T08:04:58.057Z,1008.13
2017-06-13T08:05:38.570Z,1008.08
2017-06-13T08:06:19.057Z,1008.07
2017-06-13T08:06:59.600Z,1008.04
2017-06-13T08:07:40.143Z,1008.01
2017-06-13T08:08:20.652Z,1008.01
2017-06-13T08:09:01.192Z,1008.01
2017-06-13T08:09:41.683Z,1008.03
2017-06-13T08:10:22.247Z,1008.03
2017-06-13T08:11:02.775Z,1008
2017-06-13T08:11:43.254Z,1008.02
2017-06-13T08:12:23.795Z,1008.01
2017-06-13T08:13:04.326Z,1008.02
2017-06-13T08:13:44.852Z,1008.01
2017-06-13T08:14:25.417Z,1008.03
2017-06-13T08:15:05.929Z,1008.05
2017-06-13T08:15:46.486Z,1008.08
2017-06-13T08:16:27.004Z,1008.08
2017-06-13T08:17:07.535Z,1008.12
2017-06-13T08:17:48.119Z,1008.12
2017-06-13T08:18:28.680Z,1008.11
2017-06-13T08:19:09.221Z,1008.09
2017-06-13T08:19:49.747Z,1008.09
2017-06-13T08:20:30.300Z,1008.09
2017-06-13T08:21:10.814Z,1008.1
2017-06-13T08:21:51.459Z,1008.14
2017-06-13T08:22:32.027Z,1008.13
2017-06-13T08:23:12.643Z,1008.16
2017-06-13T08:23:53.193Z,1008.2
2017-06-13T08:24:33.792Z,1008.17
2017-06-13T08:25:14.310Z,1008.16
2017-06-13T08:27:43.076Z,1008.17
2017-06-13T08:28:23.581Z,1008.13
2017-06-13T08:29:04.132Z,1008.13
2017-06-13T08:29:44.645Z,1008.11
2017-06-13T08:30:25.185Z,1008.1
2017-06-13T08:31:05.691Z,1008.1
2017-06-13T08:31:46.235Z,1008.1
2017-06-13T08:32:26.731Z,1008.12
2017-06-13T08:33:07.288Z,1008.14